Time;durP1;ratioP1;P1;durP2;ratioP2;P2;SDS_P1;SDS_P2;PMS_P1;PMS_P2;Temp;Humidity;BMP_temperature;BMP_pressure;BME280_temperature;BME280_humidity;BME280_pressure;Samples;Min_cycle;Max_cycle;Signal;HPM_P1;HPM_P2
2022/10/24 00:00:46;;;;;;;4.65;3.67;;;;;;;12.67;100.00;100488.88;5030663;28;20202;-46
2022/10/24 00:03:13;;;;;;;9.02;4.78;;;;;;;12.60;100.00;100506.28;5029891;28;20164;-44
2022/10/24 00:05:44;;;;;;;10.95;4.65;;;;;;;12.55;100.00;100501.16;5029960;28;20551;-45
2022/10/24 00:08:11;;;;;;;13.20;4.35;;;;;;;12.51;100.00;100515.69;5028611;28;20187;-43
2022/10/24 00:10:39;;;;;;;5.68;4.68;;;;;;;12.52;100.00;100501.28;5012294;28;20172;-46
2022/10/24 00:13:05;;;;;;;10.05;4.32;;;;;;;12.53;100.00;100500.34;5014809;28;20579;-45
2022/10/24 00:15:31;;;;;;;7.82;4.07;;;;;;;12.49;100.00;100506.84;5015429;28;20250;-46
2022/10/24 00:17:56;;;;;;;7.88;4.47;;;;;;;12.50;100.00;100513.94;5033407;28;20179;-45
2022/10/24 00:20:22;;;;;;;5.60;4.28;;;;;;;12.50;100.00;100505.88;5033116;28;20204;-44
2022/10/24 00:22:47;;;;;;;13.80;5.00;;;;;;;12.49;100.00;100496.09;5033128;28;20211;-43
2022/10/24 00:25:13;;;;;;;7.20;4.38;;;;;;;12.50;100.00;100499.63;5033329;28;20273;-43
2022/10/24 00:27:38;;;;;;;13.38;4.50;;;;;;;12.50;100.00;100494.25;5015491;28;20176;-41
2022/10/24 00:30:05;;;;;;;13.95;4.32;;;;;;;12.49;100.00;100484.47;5033582;28;20184;-43
2022/10/24 00:32:30;;;;;;;8.95;4.40;;;;;;;12.41;100.00;100498.28;5033049;28;20172;-43
2022/10/24 00:34:56;;;;;;;6.95;4.25;;;;;;;12.42;100.00;100501.84;5015288;28;20204;-43
2022/10/24 00:37:21;;;;;;;9.15;3.90;;;;;;;12.46;100.00;100496.25;5033213;28;20246;-48
2022/10/24 00:39:47;;;;;;;12.23;4.75;;;;;;;12.43;100.00;100493.72;5032955;28;20255;-44
2022/10/24 00:42:12;;;;;;;5.10;3.88;;;;;;;12.51;100.00;100512.13;5032825;28;20250;-44
2022/10/24 00:44:40;;;;;;;4.78;3.72;;;;;;;12.44;100.00;100514.28;5032516;28;20200;-46
2022/10/24 00:47:18;;;;;;;8.88;3.90;;;;;;;12.42;100.00;100502.72;5032933;28;20207;-43
2022/10/24 00:49:48;;;;;;;6.30;3.45;;;;;;;12.42;100.00;100517.97;5032817;28;20174;-43
2022/10/24 00:52:17;;;;;;;6.88;3.75;;;;;;;12.40;100.00;100510.00;5031455;28;20245;-43
2022/10/24 00:54:42;;;;;;;7.15;3.97;;;;;;;12.35;100.00;100502.19;5032835;28;20692;-47
2022/10/24 00:57:12;;;;;;;7.15;3.63;;;;;;;12.34;100.00;100508.47;5032621;28;20179;-42
2022/10/24 00:59:41;;;;;;;5.93;3.13;;;;;;;12.34;100.00;100516.53;5032500;28;20188;-44
2022/10/24 01:02:08;;;;;;;4.63;3.17;;;;;;;12.44;100.00;100521.44;5032732;28;20206;-44
2022/10/24 01:04:33;;;;;;;7.07;3.05;;;;;;;12.40;100.00;100525.22;5032814;28;20192;-44
2022/10/24 01:07:47;;;;;;;10.65;3.00;;;;;;;12.37;100.00;100531.63;5032378;28;20168;-44
2022/10/24 01:10:22;;;;;;;5.68;2.50;;;;;;;12.51;100.00;100530.94;4971208;28;20198;-45
2022/10/24 01:13:08;;;;;;;2.63;2.42;;;;;;;12.49;100.00;100528.31;5024214;28;20543;-45
2022/10/24 01:15:46;;;;;;;5.20;2.40;;;;;;;12.53;100.00;100519.16;5014681;28;20164;-42
2022/10/24 01:18:23;;;;;;;4.40;2.65;;;;;;;12.54;100.00;100509.28;5032377;28;20212;-44
2022/10/24 01:21:26;;;;;;;4.45;2.40;;;;;;;12.56;100.00;100521.69;5032182;28;20220;-41
2022/10/24 01:23:58;;;;;;;2.45;2.25;;;;;;;12.65;100.00;100506.91;5005370;28;20273;-43
2022/10/24 01:26:45;;;;;;;4.03;2.00;;;;;;;12.70;100.00;100507.56;5032292;28;20164;-46
2022/10/24 01:29:29;;;;;;;3.30;2.13;;;;;;;12.79;100.00;100506.19;5031975;28;20152;-42
2022/10/24 01:32:07;;;;;;;2.22;2.00;;;;;;;12.84;100.00;100492.50;5032237;28;20619;-43
2022/10/24 01:34:55;;;;;;;4.05;1.95;;;;;;;12.85;100.00;100495.09;5032152;28;20266;-44
2022/10/24 01:37:46;;;;;;;3.78;1.63;;;;;;;12.81;100.00;100489.97;5032234;28;20179;-43
2022/10/24 01:40:38;;;;;;;3.65;2.20;;;;;;;12.78;100.00;100477.56;5031850;28;20164;-43
2022/10/24 01:43:12;;;;;;;4.70;1.90;;;;;;;12.77;100.00;100481.22;5032280;28;20298;-41
2022/10/24 01:45:41;;;;;;;3.75;2.00;;;;;;;12.74;100.00;100478.66;5030621;28;20184;-43
2022/10/24 01:48:11;;;;;;;5.00;2.05;;;;;;;12.72;100.00;100485.94;5032270;28;20168;-45
2022/10/24 01:50:38;;;;;;;5.55;2.38;;;;;;;12.70;100.00;100480.66;5014093;28;20169;-43
2022/10/24 01:53:24;;;;;;;6.10;2.20;;;;;;;12.82;100.00;100473.75;5031391;28;20167;-43
2022/10/24 01:55:52;;;;;;;6.68;2.30;;;;;;;12.76;100.00;100487.53;5031369;28;20164;-42
2022/10/24 01:58:18;;;;;;;2.92;2.00;;;;;;;12.74;100.00;100476.84;5031665;28;20168;-44
2022/10/24 02:00:46;;;;;;;6.00;1.98;;;;;;;12.76;100.00;100468.72;5013439;28;20204;-44
2022/10/24 02:03:20;;;;;;;8.55;2.38;;;;;;;12.72;100.00;100477.88;5013868;28;20176;-45
2022/10/24 02:05:51;;;;;;;3.60;1.95;;;;;;;12.70;100.00;100467.22;5031509;28;20176;-44
2022/10/24 02:08:24;;;;;;;3.00;2.22;;;;;;;12.69;100.00;100468.16;5031678;28;20206;-45
2022/10/24 02:10:53;;;;;;;3.83;1.95;;;;;;;12.69;100.00;100478.91;5031363;28;20157;-44
2022/10/24 02:13:30;;;;;;;3.97;2.50;;;;;;;12.68;100.00;100473.59;5031759;28;20288;-43
2022/10/24 02:15:59;;;;;;;8.63;1.95;;;;;;;12.66;100.00;100465.66;5030955;28;20237;-45
2022/10/24 02:18:25;;;;;;;5.68;2.50;;;;;;;12.69;100.00;100465.47;5031009;28;20520;-43
2022/10/24 02:21:29;;;;;;;3.60;2.42;;;;;;;12.72;100.00;100470.69;5030966;28;20204;-48
2022/10/24 02:24:15;;;;;;;3.15;2.30;;;;;;;12.70;100.00;100467.22;5015126;28;20226;-42
2022/10/24 02:26:55;;;;;;;6.32;2.55;;;;;;;12.68;100.00;100473.59;5031422;28;20172;-44
2022/10/24 02:29:31;;;;;;;9.43;2.78;;;;;;;12.71;100.00;100463.56;5030974;28;20168;-45
2022/10/24 02:31:58;;;;;;;8.50;2.30;;;;;;;12.69;100.00;100462.78;5030843;28;20206;-42
2022/10/24 02:34:28;;;;;;;5.80;2.53;;;;;;;12.67;100.00;100467.38;5030243;28;20224;-43
2022/10/24 02:36:56;;;;;;;5.22;2.28;;;;;;;12.69;100.00;100449.34;5030600;28;20172;-42
2022/10/24 02:39:22;;;;;;;3.05;2.28;;;;;;;12.66;100.00;100456.69;5030981;28;20175;-43
2022/10/24 02:41:49;;;;;;;3.97;2.20;;;;;;;12.68;100.00;100458.38;5030748;28;20202;-45
2022/10/24 02:44:18;;;;;;;5.57;2.42;;;;;;;12.63;100.00;100455.03;5030839;28;20242;-44
2022/10/24 02:46:45;;;;;;;4.45;2.58;;;;;;;12.68;100.00;100434.19;5031126;28;20214;-42
2022/10/24 02:49:11;;;;;;;3.92;2.30;;;;;;;12.70;100.00;100445.72;5030911;28;20175;-43
2022/10/24 02:51:40;;;;;;;5.40;2.63;;;;;;;12.64;100.00;100437.09;5030770;28;20532;-44
2022/10/24 02:54:05;;;;;;;5.20;2.22;;;;;;;12.66;100.00;100446.84;5030221;28;20204;-44
2022/10/24 02:56:32;;;;;;;5.13;2.53;;;;;;;12.61;100.00;100454.25;5030881;28;20602;-46
2022/10/24 02:58:57;;;;;;;5.72;2.40;;;;;;;12.67;100.00;100450.38;5030640;28;20164;-44
2022/10/24 03:01:23;;;;;;;6.28;3.22;;;;;;;12.65;100.00;100446.91;5030742;28;20191;-43
2022/10/24 03:03:48;;;;;;;3.92;2.88;;;;;;;12.64;100.00;100451.41;5030631;28;20258;-43
2022/10/24 03:06:14;;;;;;;5.28;2.80;;;;;;;12.65;100.00;100441.53;5020454;28;20691;-42
2022/10/24 03:08:40;;;;;;;6.15;2.90;;;;;;;12.66;100.00;100437.88;5030598;28;20252;-44
2022/10/24 03:11:06;;;;;;;4.57;2.70;;;;;;;12.62;100.00;100445.25;5030845;28;20217;-46
2022/10/24 03:13:31;;;;;;;7.45;2.90;;;;;;;12.62;100.00;100453.31;5030279;28;20238;-43
2022/10/24 03:15:57;;;;;;;4.55;2.65;;;;;;;12.62;100.00;100434.50;5013219;28;20160;-43
2022/10/24 03:18:22;;;;;;;5.10;2.72;;;;;;;12.60;100.00;100427.47;5030714;28;20168;-43
2022/10/24 03:20:48;;;;;;;5.93;2.83;;;;;;;12.58;100.00;100432.94;5030444;28;20187;-45
2022/10/24 03:23:15;;;;;;;5.35;3.05;;;;;;;12.56;100.00;100433.00;5030521;28;20196;-42
2022/10/24 03:25:40;;;;;;;5.13;2.67;;;;;;;12.57;100.00;100423.09;5030472;28;20593;-42
2022/10/24 03:28:06;;;;;;;6.43;3.00;;;;;;;12.57;100.00;100417.72;5030622;28;20203;-45
2022/10/24 03:30:31;;;;;;;3.42;2.65;;;;;;;12.56;100.00;100411.50;5032062;28;20168;-47
2022/10/24 03:32:57;;;;;;;4.25;2.67;;;;;;;12.53;100.00;100406.31;5037580;28;20681;-47
2022/10/24 03:35:22;;;;;;;5.38;2.40;;;;;;;12.54;100.00;100386.53;5035432;28;20204;-46
2022/10/24 03:37:48;;;;;;;3.60;2.55;;;;;;;12.57;100.00;100385.50;5035750;28;20194;-47
2022/10/24 03:40:13;;;;;;;2.70;2.50;;;;;;;12.56;100.00;100390.00;5039302;28;20712;-48
2022/10/24 03:42:39;;;;;;;7.50;2.90;;;;;;;12.50;100.00;100411.81;5036592;28;20179;-46
2022/10/24 03:45:05;;;;;;;3.85;2.70;;;;;;;12.45;100.00;100413.91;5038973;28;20584;-48
2022/10/24 03:47:30;;;;;;;3.28;2.92;;;;;;;12.48;100.00;100408.34;5043722;28;20179;-45
2022/10/24 03:49:56;;;;;;;6.57;3.10;;;;;;;12.49;100.00;100398.50;5041462;28;20259;-42
2022/10/24 03:52:21;;;;;;;4.72;3.10;;;;;;;12.43;100.00;100405.03;5046612;28;20186;-45
2022/10/24 03:54:47;;;;;;;3.58;2.83;;;;;;;12.45;100.00;100396.91;5037297;28;20370;-46
2022/10/24 03:57:12;;;;;;;3.85;2.90;;;;;;;12.39;100.00;100383.78;5042701;28;20240;-45
2022/10/24 03:59:38;;;;;;;3.35;2.70;;;;;;;12.38;100.00;100390.13;5045776;28;20671;-45
2022/10/24 04:02:04;;;;;;;8.18;3.33;;;;;;;12.32;100.00;100394.00;5044775;28;20195;-46
2022/10/24 04:04:30;;;;;;;6.75;3.20;;;;;;;12.27;100.00;100402.31;5030431;28;20677;-47
2022/10/24 04:06:55;;;;;;;6.65;3.28;;;;;;;12.25;100.00;100389.91;5036367;28;20249;-45
2022/10/24 04:09:21;;;;;;;7.25;3.00;;;;;;;12.27;100.00;100388.00;5042076;28;20184;-47
2022/10/24 04:11:47;;;;;;;3.33;3.03;;;;;;;12.25;100.00;100371.97;5037685;28;20276;-46
2022/10/24 04:14:13;;;;;;;7.47;3.17;;;;;;;12.24;100.00;100405.13;5039167;28;20239;-47
2022/10/24 04:16:39;;;;;;;4.53;3.13;;;;;;;12.26;100.00;100403.22;5040455;28;20215;-45
2022/10/24 04:19:05;;;;;;;7.20;3.10;;;;;;;12.20;100.00;100386.56;5039451;28;20682;-47
2022/10/24 04:21:30;;;;;;;11.38;3.47;;;;;;;12.22;100.00;100395.41;5042757;28;20284;-46
2022/10/24 04:23:56;;;;;;;7.28;4.15;;;;;;;12.21;100.00;100389.19;5039105;28;20623;-47
2022/10/24 04:26:22;;;;;;;7.05;3.30;;;;;;;12.16;100.00;100391.25;5041578;28;20222;-45
2022/10/24 04:28:48;;;;;;;6.90;3.47;;;;;;;12.13;100.00;100388.72;5046560;28;20194;-46
2022/10/24 04:31:14;;;;;;;7.43;3.42;;;;;;;12.10;100.00;100386.19;5038895;28;20229;-47
2022/10/24 04:33:40;;;;;;;5.35;2.90;;;;;;;12.09;100.00;100385.34;5039519;28;20223;-48
2022/10/24 04:36:06;;;;;;;9.73;3.28;;;;;;;12.04;100.00;100381.13;5040802;28;20666;-45
2022/10/24 04:38:31;;;;;;;6.32;3.50;;;;;;;12.06;100.00;100372.03;5038972;28;20187;-46
2022/10/24 04:40:57;;;;;;;6.78;3.42;;;;;;;12.07;100.00;100380.97;5045098;28;20199;-48
2022/10/24 04:43:23;;;;;;;4.40;3.40;;;;;;;12.06;100.00;100373.88;5034719;28;20632;-45
2022/10/24 04:45:49;;;;;;;6.78;3.30;;;;;;;12.04;100.00;100373.94;5042201;28;20186;-46
2022/10/24 04:48:17;;;;;;;6.82;3.55;;;;;;;12.03;100.00;100371.34;5041639;28;20187;-46
2022/10/24 04:50:44;;;;;;;11.38;3.75;;;;;;;12.02;100.00;100377.66;5043402;28;20296;-47
2022/10/24 04:53:11;;;;;;;6.90;3.47;;;;;;;12.03;100.00;100385.63;5039264;28;20208;-47
2022/10/24 04:55:36;;;;;;;10.27;3.60;;;;;;;11.95;100.00;100394.06;5034259;28;20292;-45
2022/10/24 04:58:03;;;;;;;8.82;4.13;;;;;;;12.02;100.00;100393.75;5039177;28;20556;-46
2022/10/24 05:00:28;;;;;;;5.40;3.28;;;;;;;12.01;100.00;100402.78;5036950;28;20184;-46
2022/10/24 05:02:54;;;;;;;7.40;3.58;;;;;;;12.02;100.00;100399.13;5022139;28;20252;-45
2022/10/24 05:05:19;;;;;;;10.35;3.55;;;;;;;12.00;100.00;100384.91;5041938;28;20740;-46
2022/10/24 05:07:46;;;;;;;5.90;3.60;;;;;;;12.07;100.00;100387.22;5038183;28;20192;-46
2022/10/24 05:10:13;;;;;;;7.10;4.15;;;;;;;12.06;100.00;100382.78;5021306;28;20191;-46
2022/10/24 05:12:39;;;;;;;8.38;3.30;;;;;;;12.09;100.00;100379.06;5038868;28;20282;-43
2022/10/24 05:15:06;;;;;;;6.85;3.63;;;;;;;12.05;100.00;100377.50;5036874;28;20215;-43
2022/10/24 05:17:32;;;;;;;4.70;3.45;;;;;;;12.06;100.00;100389.97;5040734;28;20563;-45
2022/10/24 05:19:58;;;;;;;8.45;3.28;;;;;;;12.03;100.00;100391.00;5035702;28;20262;-44
2022/10/24 05:22:23;;;;;;;5.75;3.50;;;;;;;12.03;100.00;100377.59;5040383;28;20257;-44
2022/10/24 05:24:49;;;;;;;7.13;3.45;;;;;;;12.00;100.00;100380.41;5035177;28;20265;-44
2022/10/24 05:27:19;;;;;;;4.63;3.47;;;;;;;11.97;100.00;100371.66;5037521;28;20552;-44
2022/10/24 05:29:45;;;;;;;6.38;3.63;;;;;;;12.01;100.00;100384.84;5041989;28;20183;-44
2022/10/24 05:32:10;;;;;;;9.68;3.38;;;;;;;11.98;100.00;100368.00;5038590;28;20176;-44
2022/10/24 05:34:35;;;;;;;11.20;3.53;;;;;;;11.97;100.00;100372.53;5037956;28;20203;-45
2022/10/24 05:37:01;;;;;;;9.70;3.20;;;;;;;11.91;100.00;100391.63;5035861;28;20194;-47
2022/10/24 05:39:26;;;;;;;11.77;3.60;;;;;;;11.93;100.00;100373.63;5033236;28;20306;-46
2022/10/24 05:41:52;;;;;;;3.80;2.92;;;;;;;11.92;100.00;100380.81;5029062;28;20211;-44
2022/10/24 05:44:18;;;;;;;3.33;2.85;;;;;;;11.91;100.00;100384.44;5036842;28;20616;-46
2022/10/24 05:46:44;;;;;;;7.55;3.50;;;;;;;11.89;100.00;100383.63;5034709;28;20805;-45
2022/10/24 05:49:12;;;;;;;3.42;3.13;;;;;;;11.89;100.00;100383.63;5035860;28;20242;-45
2022/10/24 05:51:37;;;;;;;5.30;3.17;;;;;;;11.84;100.00;100382.13;5037608;28;20183;-45
2022/10/24 05:54:03;;;;;;;7.35;3.78;;;;;;;11.85;100.00;100375.78;5044379;28;20210;-46
2022/10/24 05:56:29;;;;;;;7.07;3.30;;;;;;;11.82;100.00;100375.97;5037010;28;20607;-46
2022/10/24 05:58:56;;;;;;;6.00;3.35;;;;;;;11.81;100.00;100374.22;5027364;28;20199;-44
2022/10/24 06:01:21;;;;;;;9.15;4.05;;;;;;;11.78;100.00;100375.22;5039335;28;20297;-44
2022/10/24 06:03:47;;;;;;;6.00;3.38;;;;;;;11.80;100.00;100373.34;5034860;28;20247;-46
2022/10/24 06:06:12;;;;;;;7.95;3.67;;;;;;;11.75;100.00;100383.44;5042722;28;20190;-47
2022/10/24 06:08:38;;;;;;;9.93;3.50;;;;;;;11.75;100.00;100383.44;5034427;28;20687;-45
2022/10/24 06:11:08;;;;;;;6.47;3.30;;;;;;;11.74;100.00;100377.22;5033322;28;20216;-44
2022/10/24 06:13:34;;;;;;;7.22;3.90;;;;;;;11.74;100.00;100392.44;5036064;28;20210;-45
2022/10/24 06:15:59;;;;;;;7.03;3.47;;;;;;;11.74;100.00;100393.31;5038353;28;20192;-45
2022/10/24 06:18:25;;;;;;;4.15;3.28;;;;;;;11.74;100.00;100381.69;5038922;28;20608;-45
2022/10/24 06:20:50;;;;;;;6.22;3.58;;;;;;;11.75;100.00;100386.13;5035799;28;20211;-45
2022/10/24 06:23:16;;;;;;;10.05;3.20;;;;;;;11.71;100.00;100379.19;5033850;28;20303;-44
2022/10/24 06:25:41;;;;;;;5.28;2.97;;;;;;;11.70;100.00;100390.88;5034165;28;20198;-40
2022/10/24 06:28:07;;;;;;;6.95;3.17;;;;;;;11.80;100.00;100383.22;5039662;28;20187;-43
2022/10/24 06:30:34;;;;;;;5.13;2.70;;;;;;;11.84;100.00;100376.75;5019289;28;20194;-42
2022/10/24 06:33:00;;;;;;;7.60;3.55;;;;;;;11.85;100.00;100386.53;5040395;28;20747;-42
2022/10/24 06:35:26;;;;;;;11.00;3.53;;;;;;;11.86;100.00;100382.91;5043839;28;20678;-41
2022/10/24 06:37:51;;;;;;;4.30;3.10;;;;;;;11.94;100.00;100381.59;5048855;28;20175;-40
2022/10/24 06:40:17;;;;;;;8.73;3.15;;;;;;;11.98;100.00;100392.19;5050001;28;20163;-40
2022/10/24 06:42:43;;;;;;;6.72;3.22;;;;;;;12.05;100.00;100385.56;5042940;28;20186;-41
2022/10/24 06:45:09;;;;;;;7.78;3.38;;;;;;;12.11;100.00;100380.75;5032132;28;20203;-42
2022/10/24 06:47:34;;;;;;;7.47;3.25;;;;;;;12.13;100.00;100391.38;5038240;28;20226;-41
2022/10/24 06:50:00;;;;;;;12.23;3.17;;;;;;;12.18;100.00;100378.63;5037032;28;20567;-43
2022/10/24 06:52:25;;;;;;;5.22;3.13;;;;;;;12.16;100.00;100377.81;5050265;28;20204;-42
2022/10/24 06:54:51;;;;;;;7.75;2.85;;;;;;;12.28;100.00;100376.31;5048931;28;20187;-41
2022/10/24 06:57:16;;;;;;;8.43;3.20;;;;;;;12.31;100.00;100368.97;5033639;28;20184;-44
2022/10/24 06:59:42;;;;;;;7.15;3.33;;;;;;;12.36;100.00;100371.41;5043738;28;20175;-43
2022/10/24 07:02:11;;;;;;;8.27;2.55;;;;;;;12.35;100.00;100361.59;5032238;28;20686;-42
2022/10/24 07:04:37;;;;;;;6.03;3.08;;;;;;;12.39;100.00;100362.31;5030068;28;20256;-43
2022/10/24 07:07:02;;;;;;;10.18;3.00;;;;;;;12.41;100.00;100355.88;5047433;28;20653;-42
2022/10/24 07:09:28;;;;;;;5.85;2.63;;;;;;;12.48;100.00;100354.59;5049869;28;20515;-42
2022/10/24 07:11:53;;;;;;;7.78;3.00;;;;;;;12.53;100.00;100346.31;5031691;28;20187;-42
2022/10/24 07:14:19;;;;;;;4.05;2.55;;;;;;;12.70;100.00;100359.72;5049678;28;20377;-41
2022/10/24 07:16:44;;;;;;;6.85;2.80;;;;;;;12.72;100.00;100351.53;5032621;28;20180;-43
2022/10/24 07:19:10;;;;;;;4.90;2.25;;;;;;;12.72;100.00;100354.22;5050388;28;20254;-43
2022/10/24 07:21:35;;;;;;;7.03;2.88;;;;;;;12.90;100.00;100349.66;5035032;28;20208;-41
2022/10/24 07:24:01;;;;;;;6.15;2.38;;;;;;;13.03;100.00;100348.03;5041628;28;20210;-43
2022/10/24 07:26:28;;;;;;;5.43;2.70;;;;;;;13.18;100.00;100339.09;5033973;28;20265;-44
2022/10/24 07:28:57;;;;;;;8.63;2.35;;;;;;;13.26;100.00;100344.03;5047913;28;20630;-41
2022/10/24 07:31:25;;;;;;;7.55;2.40;;;;;;;13.31;100.00;100341.97;5041695;28;20685;-41
2022/10/24 07:33:52;;;;;;;6.53;2.63;;;;;;;13.42;100.00;100338.66;5043598;28;20239;-41
2022/10/24 07:36:20;;;;;;;5.28;2.25;;;;;;;13.44;100.00;100334.06;5040790;28;20305;-43
2022/10/24 07:38:46;;;;;;;7.45;2.20;;;;;;;13.56;100.00;100338.75;5036957;28;20307;-43
2022/10/24 07:41:12;;;;;;;3.55;2.05;;;;;;;13.56;100.00;100324.41;5033326;28;20200;-43
2022/10/24 07:43:38;;;;;;;8.10;2.00;;;;;;;13.62;100.00;100331.25;5033198;28;20203;-42
2022/10/24 07:46:08;;;;;;;5.50;2.00;;;;;;;13.65;100.00;100325.69;5020668;28;20282;-42
2022/10/24 07:48:35;;;;;;;5.25;2.10;;;;;;;13.71;100.00;100320.81;5053489;28;20167;-42
2022/10/24 07:51:05;;;;;;;4.55;3.15;;;;;;;13.74;100.00;100314.38;5048475;28;20516;-45
2022/10/24 07:53:31;;;;;;;8.68;2.28;;;;;;;13.80;100.00;100317.56;5052140;28;20211;-43
2022/10/24 07:55:59;;;;;;;4.22;1.90;;;;;;;13.79;100.00;100315.81;5033470;28;20184;-44
2022/10/24 07:58:24;;;;;;;6.35;2.40;;;;;;;13.89;100.00;100317.97;5015254;28;20164;-42
2022/10/24 08:00:50;;;;;;;9.60;2.20;;;;;;;14.05;100.00;100310.69;5033856;28;20188;-42
2022/10/24 08:03:16;;;;;;;5.05;1.92;;;;;;;14.15;100.00;100302.94;5038134;28;20229;-42
2022/10/24 08:05:41;;;;;;;7.88;2.40;;;;;;;14.31;100.00;100305.53;5053368;28;20607;-45
2022/10/24 08:08:07;;;;;;;4.95;2.17;;;;;;;14.47;100.00;100308.13;5032076;28;20168;-43
2022/10/24 08:10:33;;;;;;;7.50;3.10;;;;;;;14.40;100.00;100296.88;5044059;28;20201;-43
2022/10/24 08:12:58;;;;;;;4.53;2.22;;;;;;;14.39;100.00;100301.41;5037570;28;20665;-43
2022/10/24 08:15:26;;;;;;;11.05;2.28;;;;;;;14.56;100.00;100296.78;5038715;28;20557;-42
2022/10/24 08:17:53;;;;;;;6.10;2.10;;;;;;;14.61;100.00;100295.56;5044315;28;20190;-43
2022/10/24 08:20:19;;;;;;;8.93;1.95;;;;;;;14.71;100.00;100289.56;5032637;28;20183;-42
2022/10/24 08:22:44;;;;;;;3.20;2.33;;;;;;;14.79;100.00;100293.50;5033013;28;20188;-41
2022/10/24 08:25:10;;;;;;;5.03;2.28;;;;;;;14.89;100.00;100292.91;5045324;28;20206;-42
2022/10/24 08:27:36;;;;;;;3.95;1.92;;;;;;;14.95;100.00;100297.91;5050892;28;20658;-41
2022/10/24 08:30:02;;;;;;;7.70;2.30;;;;;;;15.07;100.00;100301.66;5044348;28;20228;-44
2022/10/24 08:32:28;;;;;;;6.38;1.95;;;;;;;15.20;100.00;100292.63;5031498;28;20251;-43
2022/10/24 08:34:53;;;;;;;8.32;2.45;;;;;;;15.28;100.00;100278.63;5032550;28;20246;-41
2022/10/24 08:37:18;;;;;;;4.82;2.08;;;;;;;15.53;100.00;100293.19;5051859;28;20213;-42
2022/10/24 08:39:44;;;;;;;7.43;2.30;;;;;;;15.63;100.00;100297.88;5052388;28;20845;-43
2022/10/24 08:42:14;;;;;;;7.50;2.45;;;;;;;15.58;100.00;100288.34;5052556;28;20207;-42
2022/10/24 08:44:42;;;;;;;4.13;2.17;;;;;;;15.69;100.00;100295.72;5050967;28;20304;-42
2022/10/24 08:47:11;;;;;;;4.53;2.20;;;;;;;15.60;100.00;100289.97;5041988;28;20241;-42
2022/10/24 08:50:24;;;;;;;5.57;2.10;;;;;;;15.59;100.00;100285.53;5047781;28;20208;-44
2022/10/24 08:52:54;;;;;;;5.53;2.30;;;;;;;15.82;100.00;100300.19;5016058;28;20576;-41
2022/10/24 08:55:24;;;;;;;6.97;2.20;;;;;;;15.80;100.00;100295.88;5032924;28;20214;-43
2022/10/24 08:57:56;;;;;;;7.60;1.92;;;;;;;15.95;100.00;100283.16;5043227;28;20187;-41
2022/10/24 09:00:25;;;;;;;4.90;1.90;;;;;;;16.08;100.00;100278.63;5052073;28;20163;-42
2022/10/24 09:02:57;;;;;;;7.97;1.80;;;;;;;15.88;99.61;100268.34;5051595;28;20229;-43
2022/10/24 09:05:39;;;;;;;4.65;2.17;;;;;;;16.14;98.56;100269.22;5051902;28;20607;-42
2022/10/24 09:08:19;;;;;;;4.88;1.95;;;;;;;16.13;98.04;100271.03;5051594;28;20233;-43
2022/10/24 09:10:52;;;;;;;6.13;2.10;;;;;;;16.25;97.73;100269.31;5046150;28;20290;-42
2022/10/24 09:13:18;;;;;;;7.25;2.15;;;;;;;16.27;96.92;100265.53;5033813;28;20171;-43
2022/10/24 09:15:45;;;;;;;4.75;2.08;;;;;;;16.42;96.11;100260.88;5046767;28;20179;-43
2022/10/24 09:18:22;;;;;;;4.00;1.75;;;;;;;16.43;95.24;100256.31;5037633;28;20190;-45
2022/10/24 09:20:49;;;;;;;4.72;1.92;;;;;;;16.53;94.22;100262.81;5041225;28;20206;-44
2022/10/24 09:23:16;;;;;;;5.75;2.20;;;;;;;16.56;94.35;100257.16;5037967;28;20239;-45
2022/10/24 09:25:48;;;;;;;7.82;1.80;;;;;;;16.75;93.60;100255.81;5040749;28;20194;-44
2022/10/24 09:28:14;;;;;;;8.07;2.10;;;;;;;16.55;93.00;100257.25;5041147;28;20192;-45
2022/10/24 09:30:40;;;;;;;7.50;2.40;;;;;;;16.43;92.73;100243.66;5040167;28;20179;-45
2022/10/24 09:33:29;;;;;;;10.32;2.58;;;;;;;16.54;93.21;100247.44;5038115;28;20712;-46
2022/10/24 09:35:58;;;;;;;5.78;2.13;;;;;;;16.32;93.07;100254.38;5038280;28;20188;-44
2022/10/24 09:38:27;;;;;;;9.25;1.90;;;;;;;16.63;92.68;100253.03;5039509;28;20549;-45
2022/10/24 09:40:59;;;;;;;5.45;1.90;;;;;;;16.44;92.83;100263.44;5030661;28;20212;-45
2022/10/24 09:43:38;;;;;;;3.22;1.80;;;;;;;16.29;92.48;100251.91;5039430;28;20206;-44
2022/10/24 09:46:08;;;;;;;6.57;2.17;;;;;;;16.28;93.60;100255.56;5029405;28;20282;-47
2022/10/24 09:48:44;;;;;;;5.82;2.17;;;;;;;16.34;94.02;100267.81;5040249;28;20191;-50
2022/10/24 09:51:18;;;;;;;7.93;1.83;;;;;;;16.32;93.83;100261.66;5038976;28;20704;-47
2022/10/24 09:53:59;;;;;;;9.65;2.00;;;;;;;16.61;93.28;100267.66;5037906;28;20243;-48
2022/10/24 09:56:35;;;;;;;6.05;1.80;;;;;;;16.71;92.71;100257.03;5030633;28;20210;-47
2022/10/24 09:59:17;;;;;;;11.55;2.28;;;;;;;16.79;92.03;100250.09;5038709;28;20549;-46
2022/10/24 10:01:44;;;;;;;5.25;1.60;;;;;;;16.62;91.82;100247.75;5020713;28;20651;-45
2022/10/24 10:04:16;;;;;;;6.40;1.67;;;;;;;16.70;92.10;100248.03;5034805;28;20642;-47
2022/10/24 10:06:44;;;;;;;6.25;1.67;;;;;;;16.89;91.11;100253.84;5038318;28;20198;-46
2022/10/24 10:09:22;;;;;;;5.85;2.20;;;;;;;16.98;90.77;100246.03;5038420;28;20674;-45
2022/10/24 10:11:54;;;;;;;7.32;1.80;;;;;;;17.04;89.77;100249.16;5037970;28;20193;-48
2022/10/24 10:14:27;;;;;;;6.70;1.63;;;;;;;17.37;89.68;100246.75;5036839;28;20211;-46
2022/10/24 10:17:01;;;;;;;4.68;1.48;;;;;;;17.27;88.37;100246.56;5037539;28;20565;-47
2022/10/24 10:19:31;;;;;;;3.63;1.40;;;;;;;17.30;87.32;100241.78;5040879;28;20196;-46
2022/10/24 10:22:02;;;;;;;5.93;1.38;;;;;;;17.23;87.21;100242.34;5037015;28;20220;-46
2022/10/24 10:24:33;;;;;;;5.35;1.95;;;;;;;17.33;86.73;100237.13;5038878;28;20235;-42
2022/10/24 10:26:59;;;;;;;5.20;1.90;;;;;;;17.33;86.70;100246.09;5037515;28;20464;-41
2022/10/24 10:29:25;;;;;;;4.88;1.83;;;;;;;17.55;86.25;100250.75;5038350;28;20252;-43
2022/10/24 10:31:53;;;;;;;6.82;1.75;;;;;;;17.42;85.50;100249.94;5020557;28;20262;-43
2022/10/24 10:34:24;;;;;;;6.60;1.98;;;;;;;17.38;85.63;100235.81;5036851;28;20287;-43
2022/10/24 10:36:55;;;;;;;4.63;1.58;;;;;;;17.42;85.70;100237.25;5028930;28;20267;-42
2022/10/24 10:40:01;;;;;;;8.18;2.10;;;;;;;17.36;85.23;100234.16;5038195;28;20187;-45
2022/10/24 10:43:03;;;;;;;8.73;1.52;;;;;;;17.40;85.30;100238.38;5035969;28;20254;-44
2022/10/24 10:45:32;;;;;;;9.27;1.73;;;;;;;17.46;84.69;100227.94;5039840;28;20264;-44
2022/10/24 10:48:27;;;;;;;5.40;1.35;;;;;;;17.47;84.46;100223.38;5033807;28;20183;-45
2022/10/24 10:51:02;;;;;;;8.45;1.77;;;;;;;17.55;84.15;100233.63;5036659;28;20199;-42
2022/10/24 10:53:43;;;;;;;8.07;1.50;;;;;;;17.54;84.12;100232.78;5036762;28;20219;-44
2022/10/24 10:56:22;;;;;;;11.48;2.17;;;;;;;17.68;83.95;100224.41;5035847;28;20187;-45
2022/10/24 10:59:05;;;;;;;5.57;1.85;;;;;;;17.68;84.00;100234.41;5037476;28;20700;-43
2022/10/24 11:02:08;;;;;;;2.40;1.20;;;;;;;17.87;82.86;100228.47;5035279;28;20254;-46
2022/10/24 11:04:44;;;;;;;6.75;1.35;;;;;;;17.86;82.71;100227.59;5036097;28;20535;-46
2022/10/24 11:07:27;;;;;;;4.70;1.48;;;;;;;17.69;82.34;100228.88;5037645;28;20179;-44
2022/10/24 11:09:58;;;;;;;11.82;1.90;;;;;;;17.50;82.78;100232.13;5036812;28;20191;-44
2022/10/24 11:12:37;;;;;;;4.45;1.20;;;;;;;17.35;83.47;100229.75;5029335;28;20653;-45
2022/10/24 11:15:25;;;;;;;4.15;1.25;;;;;;;17.18;83.40;100236.44;5036946;28;20294;-48
2022/10/24 11:17:59;;;;;;;4.25;1.40;;;;;;;17.09;83.71;100232.56;5035326;28;20533;-45
2022/10/24 11:20:35;;;;;;;6.47;1.70;;;;;;;17.13;84.04;100235.91;5037349;28;20198;-43
2022/10/24 11:23:10;;;;;;;5.97;1.48;;;;;;;17.21;84.64;100258.72;5036554;28;20188;-44
2022/10/24 11:25:40;;;;;;;5.20;1.60;;;;;;;17.13;83.57;100236.78;5035257;28;20200;-45
2022/10/24 11:28:20;;;;;;;7.07;1.98;;;;;;;17.07;83.49;100245.34;5037678;28;20180;-49
2022/10/24 11:30:55;;;;;;;8.02;1.88;;;;;;;17.15;84.46;100247.50;5031995;28;20178;-46